createdAt,value
2019-01-17T00:01:05.620Z,3.27
2019-01-17T00:04:11.934Z,3.26
2019-01-17T00:06:50.985Z,3.29
2019-01-17T00:09:29.893Z,3.26
2019-01-17T00:12:16.450Z,3.32
2019-01-17T00:15:07.665Z,3.27
2019-01-17T00:17:52.935Z,3.32
2019-01-17T00:20:39.456Z,3.31
2019-01-17T00:23:29.545Z,3.30
2019-01-17T00:26:11.691Z,3.33
2019-01-17T00:28:50.342Z,3.30
2019-01-17T00:31:27.078Z,3.28
2019-01-17T00:34:18.522Z,3.22
2019-01-17T00:37:06.607Z,3.22
2019-01-17T00:40:00.754Z,3.21
2019-01-17T00:45:56.397Z,3.31
2019-01-17T00:48:47.287Z,3.22
2019-01-17T00:51:47.150Z,3.20
2019-01-17T00:54:24.945Z,3.19
2019-01-17T00:57:15.774Z,3.17
2019-01-17T01:00:06.870Z,3.17
2019-01-17T01:02:44.446Z,3.15
2019-01-17T01:05:35.520Z,3.14
2019-01-17T01:08:29.462Z,3.18
2019-01-17T01:11:32.498Z,3.12
2019-01-17T01:14:26.313Z,3.11
2019-01-17T01:17:12.653Z,3.10
2019-01-17T01:19:59.386Z,3.06
2019-01-17T01:22:45.870Z,3.01
2019-01-17T01:25:46.145Z,3.01
2019-01-17T01:28:32.674Z,3.06
2019-01-17T01:31:20.742Z,3.11
2019-01-17T01:34:02.108Z,3.08
2019-01-17T01:36:50.577Z,3.18
2019-01-17T01:39:37.210Z,3.14
2019-01-17T01:42:14.546Z,3.15
2019-01-17T01:45:08.641Z,3.15
2019-01-17T01:47:56.711Z,3.18
2019-01-17T01:50:36.820Z,3.22
2019-01-17T01:53:09.011Z,3.26
2019-01-17T01:55:38.086Z,3.29
2019-01-17T01:58:07.185Z,3.33
2019-01-17T02:00:36.270Z,3.26
2019-01-17T02:03:05.369Z,3.34
2019-01-17T02:05:34.453Z,3.32
2019-01-17T02:08:03.848Z,3.30
2019-01-17T02:10:32.917Z,3.30
2019-01-17T02:13:02.031Z,3.34
2019-01-17T02:15:31.104Z,3.39
2019-01-17T02:18:00.204Z,3.39
2019-01-17T02:20:29.270Z,3.46
2019-01-17T02:22:58.386Z,3.43
2019-01-17T02:25:27.453Z,3.42
2019-01-17T02:27:56.556Z,3.42
2019-01-17T02:30:25.643Z,3.44
2019-01-17T02:32:54.715Z,3.49
2019-01-17T02:35:23.817Z,3.48
2019-01-17T02:37:52.914Z,3.55
2019-01-17T02:40:22.032Z,3.54
2019-01-17T02:42:51.113Z,3.49
2019-01-17T02:45:20.222Z,3.54
2019-01-17T02:47:49.306Z,3.54
2019-01-17T02:50:18.410Z,3.58
2019-01-17T02:52:47.490Z,3.57
2019-01-17T02:55:16.582Z,3.57
2019-01-17T02:57:45.660Z,3.58
2019-01-17T03:00:16.653Z,3.55
2019-01-17T03:02:45.731Z,3.56
2019-01-17T03:05:14.939Z,3.55
2019-01-17T03:07:44.119Z,3.57
2019-01-17T03:10:17.797Z,3.55
2019-01-17T03:12:46.881Z,3.56
2019-01-17T03:15:15.984Z,3.54
2019-01-17T03:17:45.067Z,3.55
2019-01-17T03:20:14.655Z,3.52
2019-01-17T03:22:43.734Z,3.55
2019-01-17T03:25:12.861Z,3.57
2019-01-17T03:27:41.952Z,3.56
2019-01-17T03:30:16.650Z,3.58
2019-01-17T03:32:45.929Z,3.58
2019-01-17T03:35:15.027Z,3.56
2019-01-17T03:37:44.110Z,3.58
2019-01-17T03:40:15.497Z,3.59
2019-01-17T03:42:44.570Z,3.60
2019-01-17T03:45:14.017Z,3.61
2019-01-17T03:47:43.106Z,3.64
2019-01-17T03:50:13.638Z,3.56
2019-01-17T03:52:42.747Z,3.61
2019-01-17T03:55:13.807Z,3.62
2019-01-17T03:57:42.902Z,3.65
2019-01-17T04:00:15.211Z,3.58
2019-01-17T04:02:44.318Z,3.61
2019-01-17T04:05:13.491Z,3.56
2019-01-17T04:07:42.582Z,3.61
2019-01-17T04:10:12.805Z,3.59
2019-01-17T04:12:41.907Z,3.59
2019-01-17T04:15:11.256Z,3.58
2019-01-17T04:17:40.357Z,3.56
2019-01-17T04:20:12.412Z,3.58
2019-01-17T04:22:41.520Z,3.59
2019-01-17T04:25:10.647Z,3.60
2019-01-17T04:27:39.745Z,3.57
2019-01-17T04:30:12.250Z,3.56
2019-01-17T04:32:41.347Z,3.57
2019-01-17T04:35:10.524Z,3.58
2019-01-17T04:37:39.624Z,3.55
2019-01-17T04:40:09.303Z,3.55
2019-01-17T04:42:38.397Z,3.51
2019-01-17T04:45:08.406Z,3.56
2019-01-17T04:47:37.506Z,3.54
2019-01-17T04:50:08.100Z,3.58
2019-01-17T04:52:37.208Z,3.57
2019-01-17T04:55:07.490Z,3.57
2019-01-17T04:57:36.580Z,3.61
2019-01-17T05:00:08.371Z,3.58
2019-01-17T05:02:38.552Z,3.61
2019-01-17T05:05:07.943Z,3.60
2019-01-17T05:07:37.043Z,3.57
2019-01-17T05:10:06.603Z,3.55
2019-01-17T05:12:35.705Z,3.56
2019-01-17T05:15:05.319Z,3.54
2019-01-17T05:17:34.420Z,3.52
2019-01-17T05:20:03.561Z,3.54
2019-01-17T05:22:32.672Z,3.54
2019-01-17T05:25:01.735Z,3.54
2019-01-17T05:27:30.814Z,3.50
2019-01-17T05:30:01.647Z,3.54
2019-01-17T05:32:36.596Z,3.54
2019-01-17T05:35:01.615Z,3.52
2019-01-17T05:37:30.696Z,3.50
2019-01-17T05:39:59.820Z,3.51
2019-01-17T05:42:28.904Z,3.51
2019-01-17T05:44:58.004Z,3.48
2019-01-17T05:47:27.098Z,3.48
2019-01-17T05:49:56.194Z,3.53
2019-01-17T05:52:25.269Z,3.46
2019-01-17T05:54:54.367Z,3.51
2019-01-17T05:57:23.437Z,3.46
2019-01-17T05:59:52.543Z,3.45
2019-01-17T06:02:21.629Z,3.41
2019-01-17T06:04:50.723Z,3.40
2019-01-17T06:07:19.807Z,3.42
2019-01-17T06:09:48.918Z,3.40
2019-01-17T06:12:17.995Z,3.39
2019-01-17T06:14:47.102Z,3.34
2019-01-17T06:17:16.179Z,3.35
2019-01-17T06:19:45.278Z,3.27
2019-01-17T06:22:14.351Z,3.33
2019-01-17T06:24:43.475Z,3.27
2019-01-17T06:27:12.563Z,3.26
2019-01-17T06:29:41.661Z,3.27
2019-01-17T06:32:10.743Z,3.25
2019-01-17T06:34:39.848Z,3.25
2019-01-17T06:37:08.922Z,3.28
2019-01-17T06:39:38.046Z,3.34
2019-01-17T06:42:07.123Z,3.34
2019-01-17T06:44:36.219Z,3.29
2019-01-17T06:47:05.295Z,3.27
2019-01-17T06:49:34.371Z,3.28
2019-01-17T06:52:03.478Z,3.21
2019-01-17T06:54:32.550Z,3.17
2019-01-17T06:57:01.659Z,3.19
2019-01-17T06:59:30.730Z,3.15
2019-01-17T07:01:59.827Z,3.17
2019-01-17T07:04:28.900Z,3.22
2019-01-17T07:06:57.998Z,3.25
2019-01-17T07:09:27.076Z,3.20
2019-01-17T07:11:56.167Z,3.21
2019-01-17T07:14:25.238Z,3.14
2019-01-17T07:16:54.349Z,3.12
2019-01-17T07:19:23.455Z,3.10
2019-01-17T07:21:52.555Z,3.11
2019-01-17T07:24:21.626Z,3.15
2019-01-17T07:26:50.712Z,3.15
2019-01-17T07:29:19.789Z,3.11
2019-01-17T07:31:48.904Z,3.10
2019-01-17T07:34:17.976Z,3.17
2019-01-17T07:36:47.075Z,3.24
2019-01-17T07:39:16.154Z,3.26
2019-01-17T07:41:45.278Z,3.28
2019-01-17T07:44:14.370Z,3.28
2019-01-17T07:46:43.471Z,3.33
2019-01-17T07:49:12.546Z,3.38
2019-01-17T07:51:41.647Z,3.36
2019-01-17T07:54:10.730Z,3.37
2019-01-17T07:56:39.826Z,3.39
2019-01-17T07:59:08.914Z,3.41
2019-01-17T08:01:38.019Z,3.47
2019-01-17T08:04:07.109Z,3.40
2019-01-17T08:06:36.213Z,3.39
2019-01-17T08:09:09.384Z,3.47
2019-01-17T08:11:38.487Z,3.52
2019-01-17T08:14:07.572Z,3.49
2019-01-17T08:16:36.670Z,3.47
2019-01-17T08:19:05.763Z,3.50
2019-01-17T08:21:34.836Z,3.49
2019-01-17T08:24:03.931Z,3.51
2019-01-17T08:26:33.014Z,3.51
2019-01-17T08:29:02.118Z,3.54
2019-01-17T08:31:31.193Z,3.52
2019-01-17T08:34:00.289Z,3.69
2019-01-17T08:36:29.353Z,3.64
2019-01-17T08:38:58.457Z,3.64
2019-01-17T08:41:27.552Z,3.64
2019-01-17T08:43:56.748Z,3.62
2019-01-17T08:46:25.834Z,3.74
2019-01-17T08:48:54.927Z,3.73
2019-01-17T08:51:24.004Z,3.77
2019-01-17T08:53:53.103Z,3.91
2019-01-17T08:56:22.193Z,4.01
2019-01-17T08:58:51.292Z,3.99
2019-01-17T09:01:20.375Z,3.94
2019-01-17T09:03:49.466Z,3.92
2019-01-17T09:06:18.545Z,3.81
2019-01-17T09:08:47.645Z,3.73
2019-01-17T09:11:16.720Z,3.75
2019-01-17T09:13:45.825Z,3.74
2019-01-17T09:16:14.898Z,3.73
2019-01-17T09:18:43.998Z,3.66
2019-01-17T09:21:13.077Z,3.74
2019-01-17T09:23:42.170Z,3.86
2019-01-17T09:26:11.253Z,4.67
2019-01-17T09:28:40.347Z,5.77
2019-01-17T09:31:09.417Z,6.13
2019-01-17T09:33:38.518Z,5.63
2019-01-17T09:36:07.591Z,5.04
2019-01-17T09:38:36.688Z,5.53
2019-01-17T09:41:05.789Z,5.51
2019-01-17T09:43:34.877Z,5.44
2019-01-17T09:46:03.970Z,5.79
2019-01-17T09:48:33.049Z,5.67
2019-01-17T09:51:02.141Z,5.68
2019-01-17T09:53:31.210Z,4.86
2019-01-17T09:56:00.303Z,4.47
2019-01-17T09:58:29.370Z,4.42
2019-01-17T10:00:58.466Z,4.68
2019-01-17T10:03:27.533Z,4.81
2019-01-17T10:05:56.637Z,4.61
2019-01-17T10:08:25.721Z,4.86
2019-01-17T10:10:54.813Z,4.81
2019-01-17T10:13:23.881Z,5.70
2019-01-17T10:16:31.151Z,6.40
2019-01-17T10:19:38.423Z,5.98
2019-01-17T10:22:44.461Z,6.31
2019-01-17T10:25:45.470Z,5.87
2019-01-17T10:28:30.230Z,4.94
2019-01-17T10:31:29.948Z,5.02
2019-01-17T10:34:55.028Z,4.97
2019-01-17T10:38:28.906Z,4.61
2019-01-17T10:41:32.253Z,4.50
2019-01-17T10:44:57.279Z,4.49
2019-01-17T10:48:09.383Z,4.44
2019-01-17T10:51:14.114Z,4.47
2019-01-17T10:54:15.300Z,4.44
2019-01-17T10:57:02.009Z,4.84
2019-01-17T10:59:53.493Z,4.70
2019-01-17T11:03:09.330Z,4.70
2019-01-17T11:06:11.440Z,4.54
2019-01-17T11:09:24.554Z,4.34
2019-01-17T11:12:20.404Z,4.62
2019-01-17T11:15:18.021Z,4.56
2019-01-17T11:18:37.511Z,4.51
2019-01-17T11:21:37.424Z,4.43
2019-01-17T11:24:20.290Z,4.74
2019-01-17T11:27:26.268Z,4.61
2019-01-17T11:30:12.546Z,4.63
2019-01-17T11:33:09.105Z,4.74
2019-01-17T11:36:28.356Z,4.66
2019-01-17T11:39:11.030Z,4.80
2019-01-17T11:42:09.463Z,4.97
2019-01-17T11:45:02.645Z,4.73
2019-01-17T11:47:56.639Z,4.81
2019-01-17T11:50:40.829Z,5.53
2019-01-17T11:53:37.593Z,5.50
2019-01-17T11:56:30.211Z,5.03
2019-01-17T11:59:19.618Z,6.06
2019-01-17T12:02:39.120Z,5.15
2019-01-17T12:05:06.759Z,4.77
2019-01-17T12:07:35.857Z,4.62
2019-01-17T12:10:05.690Z,4.91
2019-01-17T12:12:34.958Z,7.06
2019-01-17T12:15:04.637Z,5.97
2019-01-17T12:17:33.730Z,5.01
2019-01-17T12:20:02.798Z,4.90
2019-01-17T12:22:31.890Z,5.15
2019-01-17T12:25:00.957Z,4.96
2019-01-17T12:27:30.057Z,5.04
2019-01-17T12:29:59.126Z,4.83
2019-01-17T12:32:28.200Z,4.55
2019-01-17T12:34:57.289Z,4.38
2019-01-17T12:37:26.366Z,4.26
2019-01-17T12:39:55.460Z,4.28
2019-01-17T12:42:24.572Z,4.29
2019-01-17T12:44:53.661Z,4.27
2019-01-17T12:47:22.733Z,4.24
2019-01-17T12:49:51.826Z,4.34
2019-01-17T12:52:20.901Z,4.45
2019-01-17T12:54:49.999Z,4.49
2019-01-17T12:57:19.073Z,4.68
2019-01-17T12:59:48.166Z,4.73
2019-01-17T13:02:17.237Z,4.96
2019-01-17T13:04:46.341Z,5.69
2019-01-17T13:07:15.413Z,5.60
2019-01-17T13:09:44.502Z,5.05
2019-01-17T13:12:13.587Z,4.66
2019-01-17T13:14:42.690Z,4.60
2019-01-17T13:17:11.764Z,4.44
2019-01-17T13:19:41.037Z,4.35
2019-01-17T13:22:10.125Z,4.33
2019-01-17T13:24:39.213Z,4.17
2019-01-17T13:27:08.293Z,3.74
2019-01-17T13:29:37.389Z,3.66
2019-01-17T13:32:06.477Z,3.47
2019-01-17T13:34:35.585Z,3.49
2019-01-17T13:37:04.676Z,3.73
2019-01-17T13:39:33.769Z,3.84
2019-01-17T13:42:02.862Z,3.66
2019-01-17T13:44:31.949Z,3.62
2019-01-17T13:47:01.026Z,3.62
2019-01-17T13:49:30.115Z,3.48
2019-01-17T13:51:59.187Z,3.40
2019-01-17T13:54:28.278Z,3.30
2019-01-17T13:56:57.356Z,3.23
2019-01-17T13:59:26.454Z,3.22
2019-01-17T14:01:55.541Z,3.19
2019-01-17T14:04:24.732Z,2.89
2019-01-17T14:06:53.815Z,2.69
2019-01-17T14:09:22.914Z,2.46
2019-01-17T14:11:51.994Z,2.45
2019-01-17T14:14:21.098Z,2.00
2019-01-17T14:16:50.180Z,1.84
2019-01-17T14:19:19.271Z,1.99
2019-01-17T14:21:48.382Z,2.15
2019-01-17T14:24:17.459Z,2.23
2019-01-17T14:26:46.578Z,2.47
2019-01-17T14:29:15.657Z,2.54
2019-01-17T14:31:44.754Z,2.56
2019-01-17T14:34:13.850Z,2.57
2019-01-17T14:36:42.950Z,2.57
2019-01-17T14:39:12.032Z,2.41
2019-01-17T14:41:41.145Z,2.43
2019-01-17T14:44:10.231Z,2.48
2019-01-17T14:46:39.338Z,2.63
2019-01-17T14:49:08.423Z,2.68
2019-01-17T14:51:37.512Z,2.65
2019-01-17T14:54:06.581Z,2.65
2019-01-17T14:56:35.673Z,2.54
2019-01-17T14:59:04.747Z,2.53
2019-01-17T15:01:33.838Z,2.45
2019-01-17T15:04:02.930Z,2.44
2019-01-17T15:06:32.020Z,2.45
2019-01-17T15:09:01.093Z,2.52
2019-01-17T15:11:30.177Z,2.53
2019-01-17T15:13:59.249Z,2.51
2019-01-17T15:16:28.359Z,2.51
2019-01-17T15:18:57.429Z,2.45
2019-01-17T15:21:26.521Z,2.38
2019-01-17T15:23:55.592Z,2.49
2019-01-17T15:26:24.684Z,2.47
2019-01-17T15:28:53.758Z,2.34
2019-01-17T15:31:22.850Z,2.32
2019-01-17T15:33:51.921Z,2.32
2019-01-17T15:36:21.014Z,2.26
2019-01-17T15:38:50.096Z,2.27
2019-01-17T15:41:19.204Z,2.25
2019-01-17T15:43:48.280Z,2.28
2019-01-17T15:46:17.380Z,2.25
2019-01-17T15:48:46.455Z,2.28
2019-01-17T15:51:15.526Z,2.26
2019-01-17T15:53:45.130Z,2.42
2019-01-17T15:56:14.199Z,2.41
2019-01-17T15:58:43.377Z,2.26
2019-01-17T16:01:12.468Z,2.18
2019-01-17T16:03:41.585Z,2.24
2019-01-17T16:06:10.671Z,2.17
2019-01-17T16:08:39.788Z,2.12
2019-01-17T16:11:08.870Z,2.13
2019-01-17T16:13:37.984Z,2.12
2019-01-17T16:16:07.060Z,2.18
2019-01-17T16:18:36.159Z,1.99
2019-01-17T16:21:05.262Z,1.59
2019-01-17T16:23:34.356Z,1.46
2019-01-17T16:26:03.442Z,1.33
2019-01-17T16:28:32.555Z,1.37
2019-01-17T16:31:01.640Z,1.30
2019-01-17T16:33:30.751Z,1.42
2019-01-17T16:35:59.841Z,1.34
2019-01-17T16:38:28.943Z,1.34
2019-01-17T16:40:58.058Z,1.45
2019-01-17T16:43:27.162Z,1.48
2019-01-17T16:45:56.258Z,1.46
2019-01-17T16:48:25.346Z,1.41
2019-01-17T16:50:54.429Z,1.40
2019-01-17T16:53:23.529Z,1.43
2019-01-17T16:55:52.602Z,1.36
2019-01-17T16:58:21.708Z,1.32
2019-01-17T17:00:50.886Z,1.32
2019-01-17T17:03:20.025Z,1.37
2019-01-17T17:05:49.128Z,1.35
2019-01-17T17:08:18.314Z,1.27
2019-01-17T17:10:47.397Z,1.28
2019-01-17T17:13:16.488Z,1.39
2019-01-17T17:15:45.556Z,1.27
2019-01-17T17:18:14.652Z,1.30
2019-01-17T17:20:43.726Z,1.24
2019-01-17T17:23:12.827Z,1.25
2019-01-17T17:25:41.909Z,1.23
2019-01-17T17:28:10.995Z,1.35
2019-01-17T17:30:41.302Z,1.20
2019-01-17T17:33:10.369Z,1.21
2019-01-17T17:35:39.474Z,1.19
2019-01-17T17:38:08.552Z,1.15
2019-01-17T17:40:37.657Z,1.14
2019-01-17T17:43:06.763Z,1.22
2019-01-17T17:45:35.858Z,1.16
2019-01-17T17:48:05.456Z,1.09
2019-01-17T17:50:34.673Z,1.12
2019-01-17T17:53:03.786Z,1.06
2019-01-17T17:55:32.882Z,1.05
2019-01-17T17:58:02.482Z,1.04
2019-01-17T18:00:41.102Z,1.11
2019-01-17T18:03:10.188Z,0.97
2019-01-17T18:05:39.278Z,1.11
2019-01-17T18:08:08.362Z,0.83
2019-01-17T18:10:37.557Z,0.80
2019-01-17T18:13:06.701Z,0.64
2019-01-17T18:15:35.837Z,0.54
2019-01-17T18:18:05.018Z,0.41
2019-01-17T18:20:34.565Z,0.53
2019-01-17T18:23:03.675Z,0.58
2019-01-17T18:25:32.769Z,0.60
2019-01-17T18:28:01.857Z,0.72
2019-01-17T18:30:30.958Z,0.81
2019-01-17T18:33:00.046Z,0.77
2019-01-17T18:35:29.164Z,0.85
2019-01-17T18:37:58.237Z,0.87
2019-01-17T18:40:27.339Z,0.88
2019-01-17T18:42:56.458Z,0.88
2019-01-17T18:45:26.604Z,0.87
2019-01-17T18:47:58.249Z,0.82
2019-01-17T18:50:29.352Z,0.89
2019-01-17T18:52:58.709Z,0.83
2019-01-17T18:55:28.166Z,0.76
2019-01-17T18:57:57.477Z,0.76
2019-01-17T19:00:28.916Z,0.71
2019-01-17T19:02:58.368Z,0.69
2019-01-17T19:05:28.321Z,0.66
2019-01-17T19:07:57.836Z,0.64
2019-01-17T19:10:27.318Z,0.65
2019-01-17T19:12:56.557Z,0.55
2019-01-17T19:15:30.799Z,0.47
2019-01-17T19:18:00.108Z,0.38
2019-01-17T19:20:29.649Z,0.24
2019-01-17T19:22:59.133Z,0.17
2019-01-17T19:25:29.247Z,0.04
2019-01-17T19:27:58.355Z,-0.06
2019-01-17T19:30:29.053Z,-0.11
2019-01-17T19:32:58.152Z,-0.10
2019-01-17T19:35:27.608Z,-0.10
2019-01-17T19:37:57.080Z,-0.11
2019-01-17T19:40:27.959Z,-0.23
2019-01-17T19:42:58.212Z,-0.24
2019-01-17T19:45:27.310Z,-0.17
2019-01-17T19:47:56.412Z,-0.19
2019-01-17T19:50:28.510Z,-0.10
2019-01-17T19:52:58.253Z,-0.15
2019-01-17T19:55:28.605Z,-0.13
2019-01-17T19:58:00.945Z,-0.03
2019-01-17T20:00:30.708Z,0.09
2019-01-17T20:03:00.230Z,0.13
2019-01-17T20:05:31.327Z,0.22
2019-01-17T20:08:01.320Z,0.22
2019-01-17T20:10:32.993Z,0.18
2019-01-17T20:13:02.663Z,0.18
2019-01-17T20:15:32.398Z,0.17
2019-01-17T20:18:02.865Z,0.10
2019-01-17T20:20:33.851Z,0.08
2019-01-17T20:23:03.944Z,0.10
2019-01-17T20:25:33.464Z,0.12
2019-01-17T20:28:05.105Z,0.13
2019-01-17T20:30:36.638Z,0.20
2019-01-17T20:33:08.500Z,0.19
2019-01-17T20:35:39.911Z,0.21
2019-01-17T20:38:10.409Z,0.23
2019-01-17T20:40:39.631Z,0.26
2019-01-17T20:43:09.275Z,0.26
2019-01-17T20:45:39.375Z,0.24
2019-01-17T20:48:08.872Z,0.22
2019-01-17T20:50:37.941Z,0.30
2019-01-17T20:53:07.037Z,0.29
2019-01-17T20:55:36.112Z,0.32
2019-01-17T20:58:05.214Z,0.28
2019-01-17T21:00:41.798Z,0.25
2019-01-17T21:03:12.550Z,0.28
2019-01-17T21:05:41.630Z,0.32
2019-01-17T21:08:10.730Z,0.23
2019-01-17T21:10:39.813Z,0.21
2019-01-17T21:13:08.915Z,0.20
2019-01-17T21:15:37.986Z,0.20
2019-01-17T21:18:07.113Z,0.18
2019-01-17T21:20:36.207Z,0.23
2019-01-17T21:23:05.584Z,0.20
2019-01-17T21:25:34.718Z,0.17
2019-01-17T21:28:03.800Z,0.12
2019-01-17T21:30:32.896Z,0.14
2019-01-17T21:33:06.791Z,0.14
2019-01-17T21:35:32.803Z,0.11
2019-01-17T21:38:01.890Z,0.12
2019-01-17T21:40:30.990Z,0.09
2019-01-17T21:43:00.081Z,0.05
2019-01-17T21:45:29.229Z,0.08
2019-01-17T21:47:58.266Z,0.15
2019-01-17T21:50:28.144Z,0.10
2019-01-17T21:52:57.211Z,-0.06
2019-01-17T21:55:26.306Z,0.06
2019-01-17T21:57:55.378Z,0.09
2019-01-17T22:00:25.483Z,0.06
2019-01-17T22:02:54.573Z,0.10
2019-01-17T22:05:23.670Z,0.12
2019-01-17T22:07:52.767Z,0.19
2019-01-17T22:10:22.664Z,0.23
2019-01-17T22:12:51.762Z,0.17
2019-01-17T22:15:22.597Z,0.21
2019-01-17T22:17:51.691Z,0.13
2019-01-17T22:20:20.787Z,0.18
2019-01-17T22:22:49.874Z,0.12
2019-01-17T22:25:19.300Z,0.16
2019-01-17T22:27:49.481Z,0.13
2019-01-17T22:30:20.681Z,0.12
2019-01-17T22:32:49.765Z,0.12
2019-01-17T22:35:18.870Z,0.22
2019-01-17T22:37:47.951Z,0.24
2019-01-17T22:40:17.091Z,0.19
2019-01-17T22:42:46.201Z,0.20
2019-01-17T22:45:20.664Z,0.20
2019-01-17T22:47:49.743Z,0.21
2019-01-17T22:50:19.084Z,0.17
2019-01-17T22:52:48.631Z,0.18
2019-01-17T22:55:17.708Z,0.20
2019-01-17T22:57:46.801Z,0.22
2019-01-17T23:00:51.810Z,0.16
2019-01-17T23:03:23.377Z,0.24
2019-01-17T23:05:52.457Z,0.09
2019-01-17T23:08:21.548Z,0.14
2019-01-17T23:10:50.621Z,0.09
2019-01-17T23:13:19.744Z,0.23
2019-01-17T23:15:48.809Z,0.14
2019-01-17T23:18:17.897Z,0.13
2019-01-17T23:20:46.968Z,0.17
2019-01-17T23:23:16.091Z,0.07
2019-01-17T23:25:45.159Z,0.10
2019-01-17T23:28:14.261Z,0.06
2019-01-17T23:30:43.334Z,0.06
2019-01-17T23:33:12.505Z,0.10
2019-01-17T23:35:41.573Z,0.05
2019-01-17T23:38:10.675Z,0.04
2019-01-17T23:40:39.761Z,0.09
2019-01-17T23:43:08.898Z,0.02
2019-01-17T23:45:37.964Z,0.08
2019-01-17T23:48:07.060Z,0.15
2019-01-17T23:50:36.137Z,0.08
2019-01-17T23:53:05.554Z,0.17
2019-01-17T23:55:34.634Z,0.10
2019-01-17T23:58:03.736Z,0.04
